Time;durP1;ratioP1;P1;durP2;ratioP2;P2;SDS_P1;SDS_P2;PMS_P1;PMS_P2;Temp;Humidity;BMP_temperature;BMP_pressure;BME280_temperature;BME280_humidity;BME280_pressure;Samples;Min_cycle;Max_cycle;Signal;HPM_P1;HPM_P2
2023/10/12 00:00:27;;;;;;;7.72;5.07;;;13.10;99.90;;;;;;5026903;28;20025;-74
2023/10/12 00:02:54;;;;;;;14.30;7.03;;;13.00;99.90;;;;;;5027152;28;20025;-75
2023/10/12 00:05:20;;;;;;;12.70;7.45;;;13.00;99.90;;;;;;5027215;28;20095;-74
2023/10/12 00:07:49;;;;;;;10.43;6.15;;;13.00;99.90;;;;;;5043686;28;20406;-78
2023/10/12 00:12:44;;;;;;;8.75;5.75;;;13.10;99.90;;;;;;5028719;28;20029;-75
2023/10/12 00:17:46;;;;;;;10.23;5.60;;;12.90;99.90;;;;;;5028250;28;20137;-74
2023/10/12 00:20:21;;;;;;;11.23;6.88;;;12.90;99.90;;;;;;5027930;28;20056;-74
2023/10/12 00:22:47;;;;;;;13.13;7.60;;;12.90;99.90;;;;;;5028285;28;20022;-73
2023/10/12 00:25:16;;;;;;;13.07;6.85;;;12.90;99.90;;;;;;5026979;28;20422;-76
2023/10/12 00:27:43;;;;;;;12.00;7.53;;;12.90;99.90;;;;;;5028254;28;20034;-75
2023/10/12 00:30:09;;;;;;;12.20;6.35;;;12.80;99.90;;;;;;5026905;28;20113;-72
2023/10/12 00:32:36;;;;;;;10.27;6.30;;;12.80;99.90;;;;;;5043103;28;20570;-75
2023/10/12 00:35:02;;;;;;;8.77;5.60;;;12.80;99.90;;;;;;5028046;28;20104;-75
2023/10/12 00:37:29;;;;;;;12.90;5.80;;;12.80;99.90;;;;;;5030717;28;20104;-74
2023/10/12 00:42:24;;;;;;;;;;;12.80;99.90;;;;;;5032234;28;20109;-74
2023/10/12 00:44:52;;;;;;;14.40;8.30;;;12.70;99.90;;;;;;5031714;28;20395;-77
2023/10/12 00:50:11;;;;;;;8.45;5.60;;;12.70;99.90;;;;;;5031932;28;20036;-74
2023/10/12 00:52:56;;;;;;;17.63;10.88;;;12.60;99.90;;;;;;5030569;28;20025;-75
2023/10/12 00:55:35;;;;;;;9.68;5.70;;;12.60;99.90;;;;;;5031795;28;20035;-74
2023/10/12 00:58:04;;;;;;;10.63;6.15;;;12.50;99.90;;;;;;5030394;28;20041;-74
2023/10/12 01:00:35;;;;;;;15.45;6.40;;;12.70;99.90;;;;;;5031407;28;20025;-75
2023/10/12 01:03:30;;;;;;;14.88;5.65;;;12.60;99.90;;;;;;5031486;28;20100;-75
2023/10/12 01:08:43;;;;;;;7.22;4.85;;;12.70;99.90;;;;;;5031490;28;20363;-75
2023/10/12 01:11:19;;;;;;;10.68;5.63;;;12.70;99.90;;;;;;5027578;28;20033;-76
2023/10/12 01:13:49;;;;;;;8.27;5.07;;;12.60;99.90;;;;;;5031321;28;20508;-77
2023/10/12 01:16:28;;;;;;;10.95;5.30;;;12.60;99.90;;;;;;5031723;28;20028;-74
2023/10/12 01:19:05;;;;;;;14.05;5.95;;;12.70;99.90;;;;;;5046453;28;20042;-75
2023/10/12 01:21:35;;;;;;;10.23;4.82;;;12.70;99.90;;;;;;5029875;28;20080;-74
2023/10/12 01:24:11;;;;;;;11.63;5.93;;;12.70;99.90;;;;;;5029711;28;20494;-75
2023/10/12 01:26:37;;;;;;;8.87;5.33;;;12.70;99.90;;;;;;5031319;28;20629;-75
2023/10/12 01:29:03;;;;;;;7.80;4.50;;;12.70;99.90;;;;;;5031874;28;20064;-75
2023/10/12 01:31:29;;;;;;;;;;;12.60;99.90;;;;;;5030232;28;20049;-74
2023/10/12 01:33:57;;;;;;;8.32;4.95;;;12.60;99.90;;;;;;5029402;28;19916;-74
2023/10/12 01:36:27;;;;;;;12.73;5.60;;;12.60;99.90;;;;;;5030923;28;20067;-75
2023/10/12 01:39:10;;;;;;;9.20;4.25;;;12.60;99.90;;;;;;5030976;28;20017;-75
2023/10/12 01:41:36;;;;;;;5.57;3.88;;;12.50;99.90;;;;;;5030933;28;20174;-75
2023/10/12 01:44:02;;;;;;;8.23;5.43;;;12.50;99.90;;;;;;5029247;28;20398;-75
2023/10/12 01:46:27;;;;;;;;;;;12.50;99.90;;;;;;5029916;28;20038;-74
2023/10/12 01:48:53;;;;;;;10.32;5.13;;;12.50;99.90;;;;;;5028004;28;19932;-74
2023/10/12 01:51:25;;;;;;;;;;;12.50;99.90;;;;;;5030793;28;20580;-76
2023/10/12 01:54:01;;;;;;;12.23;5.00;;;12.50;99.90;;;;;;5044275;28;19920;-75
2023/10/12 01:56:29;;;;;;;8.43;5.20;;;12.50;99.90;;;;;;5032654;28;20021;-74
2023/10/12 01:58:54;;;;;;;15.75;5.10;;;12.40;99.90;;;;;;5029187;28;20034;-74
2023/10/12 02:01:20;;;;;;;;;;;12.50;99.90;;;;;;5030779;28;20022;-75
2023/10/12 02:03:48;;;;;;;8.90;4.95;;;12.50;99.90;;;;;;5030389;28;20014;-75
2023/10/12 02:06:13;;;;;;;10.45;5.20;;;12.50;99.90;;;;;;5030348;28;20076;-76
2023/10/12 02:08:40;;;;;;;;;;;12.40;99.90;;;;;;5030726;28;20711;-75
2023/10/12 02:11:11;;;;;;;11.70;5.40;;;12.40;99.90;;;;;;5028931;28;19909;-74
2023/10/12 02:13:40;;;;;;;6.55;3.90;;;12.40;99.90;;;;;;5028829;28;20033;-74
2023/10/12 02:16:13;;;;;;;9.63;4.43;;;12.40;99.90;;;;;;5030236;28;20024;-74
2023/10/12 02:18:39;;;;;;;11.02;4.50;;;12.40;99.90;;;;;;5029867;28;20068;-75
2023/10/12 02:29:11;;;;;;;6.50;4.47;;;12.30;99.90;;;;;;5030178;28;20028;-73
2023/10/12 02:31:58;;;;;;;9.50;4.57;;;12.20;99.90;;;;;;5029898;28;20095;-75
2023/10/12 02:34:27;;;;;;;9.43;3.55;;;12.20;99.90;;;;;;5028442;28;20029;-73
2023/10/12 02:37:00;;;;;;;7.20;3.72;;;12.20;99.90;;;;;;5029779;28;20034;-74
2023/10/12 02:39:38;;;;;;;11.73;3.80;;;12.20;99.90;;;;;;5045988;28;20025;-75
2023/10/12 02:44:56;;;;;;;10.20;3.53;;;12.30;99.90;;;;;;5029839;28;20087;-74
2023/10/12 02:47:30;;;;;;;12.98;4.45;;;12.30;99.90;;;;;;5028314;28;20041;-74
2023/10/12 02:52:43;;;;;;;10.20;3.38;;;12.20;99.90;;;;;;5030470;28;20032;-74
2023/10/12 02:58:19;;;;;;;10.25;3.67;;;12.20;99.90;;;;;;5049471;28;20167;-75
2023/10/12 03:00:47;;;;;;;6.85;3.97;;;12.10;99.90;;;;;;5048900;28;20070;-75
2023/10/12 03:03:25;;;;;;;5.55;3.30;;;12.10;99.90;;;;;;5043881;28;20030;-77
2023/10/12 03:05:52;;;;;;;10.02;3.72;;;12.10;99.90;;;;;;5040685;28;20040;-75
2023/10/12 03:08:20;;;;;;;5.72;2.88;;;12.10;99.90;;;;;;5046075;28;20033;-77
2023/10/12 03:13:34;;;;;;;4.70;3.10;;;11.90;99.90;;;;;;5037878;28;20041;-76
2023/10/12 03:16:09;;;;;;;9.93;3.22;;;11.90;99.90;;;;;;5049022;28;20052;-77
2023/10/12 03:18:35;;;;;;;7.93;4.05;;;12.00;99.90;;;;;;5048945;28;20048;-76
2023/10/12 03:21:11;;;;;;;;;;;12.00;99.90;;;;;;5047894;28;20402;-77
2023/10/12 03:23:38;;;;;;;7.00;3.38;;;12.10;99.90;;;;;;5048828;28;19908;-75
2023/10/12 03:26:07;;;;;;;7.10;3.55;;;11.90;99.90;;;;;;5048623;28;20150;-75
2023/10/12 03:28:44;;;;;;;8.40;3.50;;;11.90;99.90;;;;;;5048791;28;20124;-75
2023/10/12 03:31:21;;;;;;;11.52;3.47;;;11.90;99.90;;;;;;5047351;28;20059;-75
2023/10/12 03:33:53;;;;;;;7.25;3.60;;;12.00;99.90;;;;;;5047884;28;20044;-75
2023/10/12 03:36:25;;;;;;;8.32;3.45;;;12.00;99.90;;;;;;5048088;28;20032;-75
2023/10/12 03:45:08;;;;;;;7.47;3.70;;;11.90;99.90;;;;;;5041530;28;20119;-75
2023/10/12 03:47:14;;;;;;;6.38;3.80;;;11.80;99.90;;;;;;5045366;28;20049;-75
2023/10/12 03:49:57;;;;;;;;;;;11.90;99.90;;;;;;5046565;28;20103;-74
2023/10/12 03:52:52;;;;;;;9.73;4.65;;;11.70;99.90;;;;;;5029030;28;20047;-78
2023/10/12 03:55:27;;;;;;;11.60;4.68;;;11.70;99.90;;;;;;5028745;28;20021;-75
2023/10/12 03:58:06;;;;;;;14.80;5.55;;;11.80;99.90;;;;;;5028722;28;20079;-75
2023/10/12 04:00:40;;;;;;;9.13;4.35;;;11.90;99.90;;;;;;5028919;28;20060;-74
2023/10/12 04:03:12;;;;;;;8.55;3.88;;;11.90;99.90;;;;;;5027278;28;20612;-74
2023/10/12 04:18:47;;;;;;;8.63;3.47;;;11.50;99.90;;;;;;5032628;28;20313;-75
2023/10/12 04:21:22;;;;;;;12.18;4.00;;;11.60;99.90;;;;;;5039403;28;20493;-75
2023/10/12 04:28:58;;;;;;;;;;;11.50;99.90;;;;;;5032437;28;20017;-75
2023/10/12 04:34:08;;;;;;;10.13;4.43;;;11.60;99.90;;;;;;5032789;28;20078;-74
2023/10/12 04:36:44;;;;;;;;;;;11.60;99.90;;;;;;5030921;28;20124;-74
2023/10/12 04:39:16;;;;;;;19.95;6.90;;;11.60;99.90;;;;;;5030714;28;20496;-75
2023/10/12 04:47:03;;;;;;;9.35;5.18;;;11.50;99.90;;;;;;5039610;28;20072;-75
2023/10/12 04:54:52;;;;;;;9.77;4.28;;;11.60;99.90;;;;;;5045895;28;20090;-76
2023/10/12 04:57:26;;;;;;;8.93;4.53;;;11.60;99.90;;;;;;5044683;28;20032;-75
2023/10/12 05:00:47;;;;;;;9.73;4.10;;;11.60;99.90;;;;;;5033233;28;20523;-74
2023/10/12 05:07:57;;;;;;;7.65;4.10;;;11.50;99.90;;;;;;5041185;28;20205;-75
2023/10/12 05:10:28;;;;;;;7.35;3.83;;;11.50;99.90;;;;;;5049476;28;20023;-74
2023/10/12 05:13:03;;;;;;;12.35;4.78;;;11.50;99.90;;;;;;5030125;28;20063;-75
2023/10/12 05:15:39;;;;;;;7.00;4.40;;;11.50;99.90;;;;;;5038691;28;20025;-74
2023/10/12 05:18:09;;;;;;;9.38;4.55;;;11.50;99.90;;;;;;5039983;28;20521;-76
2023/10/12 05:20:35;;;;;;;12.52;3.70;;;11.70;99.90;;;;;;5029866;28;20041;-75
2023/10/12 05:23:04;;;;;;;7.38;3.78;;;11.80;99.90;;;;;;5029832;28;20050;-75
2023/10/12 05:25:47;;;;;;;6.05;3.22;;;11.80;99.90;;;;;;5049395;28;20487;-75
2023/10/12 05:28:14;;;;;;;6.03;3.10;;;11.70;99.90;;;;;;5044715;28;20029;-75
2023/10/12 05:30:48;;;;;;;9.23;3.42;;;11.70;99.90;;;;;;5029890;28;20036;-75
2023/10/12 05:35:59;;;;;;;5.22;3.58;;;11.70;99.90;;;;;;5030772;28;20071;-74
2023/10/12 05:38:35;;;;;;;8.55;3.53;;;11.80;99.90;;;;;;5030803;28;20041;-74
2023/10/12 05:41:04;;;;;;;;;;;11.90;99.90;;;;;;5031064;28;20479;-74
2023/10/12 05:43:33;;;;;;;8.27;3.90;;;11.90;99.90;;;;;;5029383;28;19905;-74
2023/10/12 05:46:16;;;;;;;6.93;2.95;;;12.00;99.90;;;;;;5030392;28;20033;-74
2023/10/12 05:48:46;;;;;;;8.57;3.80;;;12.00;99.90;;;;;;5034462;28;20588;-76
2023/10/12 05:51:24;;;;;;;7.32;3.78;;;12.00;99.90;;;;;;5030493;28;20625;-76
2023/10/12 05:54:02;;;;;;;8.23;4.50;;;12.00;99.90;;;;;;5029754;28;20041;-75
2023/10/12 05:56:30;;;;;;;7.22;4.28;;;12.10;99.90;;;;;;5029235;28;20525;-79
2023/10/12 05:58:55;;;;;;;11.88;3.85;;;12.20;99.90;;;;;;5030348;28;20029;-75
2023/10/12 06:01:33;;;;;;;;;;;12.30;99.90;;;;;;5030912;28;20056;-75
2023/10/12 06:03:59;;;;;;;7.55;3.40;;;12.30;99.90;;;;;;5029169;28;19913;-76
2023/10/12 06:06:25;;;;;;;18.88;3.65;;;12.30;99.90;;;;;;5030145;28;20410;-75
2023/10/12 06:08:52;;;;;;;8.48;3.63;;;12.40;99.90;;;;;;5030198;28;20467;-75
2023/10/12 06:11:18;;;;;;;9.50;3.63;;;12.50;99.90;;;;;;5030678;28;20796;-72
2023/10/12 06:13:51;;;;;;;11.27;3.60;;;12.70;99.90;;;;;;5030053;28;20022;-74
2023/10/12 06:16:20;;;;;;;8.90;3.42;;;12.80;99.90;;;;;;5030434;28;20549;-73
2023/10/12 06:18:49;;;;;;;8.80;4.20;;;13.20;99.90;;;;;;5028136;28;20049;-74
2023/10/12 06:21:17;;;;;;;11.50;3.60;;;13.40;99.90;;;;;;5028849;28;20103;-73
2023/10/12 06:23:50;;;;;;;7.65;4.03;;;13.60;99.90;;;;;;5029837;28;20458;-73
2023/10/12 06:26:29;;;;;;;10.65;3.22;;;13.80;99.90;;;;;;5028757;28;20044;-73
2023/10/12 06:28:59;;;;;;;6.38;2.95;;;14.00;99.90;;;;;;5029817;28;20017;-74
2023/10/12 06:31:30;;;;;;;9.07;2.78;;;14.20;99.90;;;;;;5029817;28;20053;-73
2023/10/12 06:33:59;;;;;;;5.57;2.17;;;14.40;99.90;;;;;;5029363;28;20029;-74
2023/10/12 06:36:37;;;;;;;6.95;2.60;;;14.70;99.90;;;;;;5029426;28;20033;-74
2023/10/12 06:44:27;;;;;;;6.13;3.10;;;15.90;99.90;;;;;;5029678;28;20018;-73
2023/10/12 06:49:44;;;;;;;5.15;2.50;;;16.60;99.90;;;;;;5028949;28;20032;-75
2023/10/12 06:52:13;;;;;;;11.40;3.38;;;16.80;99.90;;;;;;5029318;28;20035;-74
2023/10/12 06:54:39;;;;;;;11.27;3.15;;;16.90;99.90;;;;;;5028087;28;20067;-73
2023/10/12 06:57:29;;;;;;;8.20;2.70;;;17.10;99.90;;;;;;5028177;28;20049;-74
2023/10/12 07:02:24;;;;;;;5.50;2.83;;;17.40;99.90;;;;;;5029174;28;20033;-74
2023/10/12 07:05:09;;;;;;;6.95;2.70;;;17.40;99.90;;;;;;5029130;28;20104;-74
2023/10/12 07:07:40;;;;;;;4.90;2.55;;;17.40;99.90;;;;;;5029117;28;20059;-74
2023/10/12 07:12:47;;;;;;;7.65;3.15;;;17.30;99.90;;;;;;5029059;28;20036;-73
2023/10/12 07:15:21;;;;;;;6.03;2.72;;;17.10;99.90;;;;;;5029129;28;20049;-74
2023/10/12 07:17:51;;;;;;;7.07;3.90;;;17.00;99.90;;;;;;5027246;28;20098;-73
2023/10/12 07:23:34;;;;;;;16.83;3.20;;;16.80;99.90;;;;;;5027853;28;20037;-74
2023/10/12 07:25:50;;;;;;;10.63;3.10;;;16.70;99.90;;;;;;5028348;28;20129;-75
2023/10/12 07:28:18;;;;;;;9.60;3.20;;;16.80;99.90;;;;;;5026456;28;20033;-74
2023/10/12 07:31:13;;;;;;;11.50;3.88;;;16.80;99.90;;;;;;5026842;28;20014;-74
2023/10/12 07:33:32;;;;;;;10.85;2.97;;;16.80;99.90;;;;;;5027062;28;20466;-74
2023/10/12 07:36:17;;;;;;;9.10;3.42;;;16.80;99.90;;;;;;5027233;28;20116;-74
2023/10/12 07:38:55;;;;;;;8.00;3.72;;;16.90;99.90;;;;;;5025842;28;20040;-74
2023/10/12 07:41:32;;;;;;;8.48;3.70;;;16.80;99.90;;;;;;5027245;28;20018;-74
2023/10/12 07:43:58;;;;;;;8.02;3.58;;;16.90;99.90;;;;;;5028323;28;20091;-74
2023/10/12 07:46:25;;;;;;;5.78;2.90;;;16.90;99.90;;;;;;5027721;28;20460;-74
2023/10/12 07:48:51;;;;;;;6.35;2.67;;;17.00;99.90;;;;;;5028644;28;20398;-73
2023/10/12 07:51:28;;;;;;;6.35;3.30;;;17.10;99.90;;;;;;5028611;28;20029;-74
2023/10/12 07:54:00;;;;;;;10.27;3.83;;;17.10;99.90;;;;;;5028561;28;20116;-74
2023/10/12 07:56:32;;;;;;;13.95;3.88;;;17.10;99.90;;;;;;5028473;28;20036;-74
2023/10/12 07:58:58;;;;;;;12.18;3.70;;;17.20;99.90;;;;;;5027177;28;20518;-73
2023/10/12 08:03:59;;;;;;;11.15;3.10;;;17.30;99.90;;;;;;5028558;28;20049;-74
2023/10/12 08:06:42;;;;;;;8.30;3.88;;;17.30;99.90;;;;;;5026960;28;20037;-74
2023/10/12 08:09:51;;;;;;;8.15;3.40;;;17.50;99.90;;;;;;5027093;28;20033;-73
2023/10/12 08:11:56;;;;;;;6.88;2.97;;;17.60;99.90;;;;;;5027779;28;20525;-74
2023/10/12 08:19:39;;;;;;;7.68;3.00;;;18.20;99.90;;;;;;5028169;28;20040;-74
2023/10/12 08:22:14;;;;;;;6.65;2.63;;;18.70;99.70;;;;;;5026820;28;20838;-74
2023/10/12 08:24:40;;;;;;;10.77;3.00;;;19.60;98.30;;;;;;5027094;28;20054;-74
2023/10/12 08:27:06;;;;;;;8.35;2.78;;;20.50;94.40;;;;;;5027963;28;20081;-74
2023/10/12 08:37:20;;;;;;;8.15;3.65;;;23.30;77.20;;;;;;5028267;28;20069;-74
2023/10/12 08:39:50;;;;;;;7.63;3.75;;;23.80;72.70;;;;;;5026666;28;20076;-74
2023/10/12 08:44:58;;;;;;;5.20;2.45;;;24.70;65.60;;;;;;5028355;28;20036;-75
2023/10/12 08:50:05;;;;;;;6.45;2.85;;;25.50;61.50;;;;;;5028226;28;20044;-75
2023/10/12 08:52:40;;;;;;;8.98;2.97;;;25.80;60.80;;;;;;5026831;28;20037;-74
2023/10/12 08:55:14;;;;;;;7.13;3.05;;;26.20;59.10;;;;;;5028093;28;20144;-74
2023/10/12 08:58:32;;;;;;;6.45;3.45;;;26.50;58.00;;;;;;5029456;28;20037;-74
2023/10/12 09:03:27;;;;;;;6.53;3.40;;;27.00;55.20;;;;;;5031810;28;20107;-74
2023/10/12 09:05:54;;;;;;;6.88;2.65;;;27.10;54.70;;;;;;5031460;28;20029;-74
2023/10/12 09:10:49;;;;;;;5.63;3.50;;;27.50;51.90;;;;;;5031402;28;20079;-74
2023/10/12 09:13:17;;;;;;;10.95;4.45;;;27.40;50.50;;;;;;5029923;28;20022;-74
2023/10/12 09:15:45;;;;;;;11.07;3.80;;;26.70;51.00;;;;;;5031350;28;20060;-74
2023/10/12 09:18:16;;;;;;;7.72;3.70;;;27.30;51.00;;;;;;5031072;28;20041;-75
2023/10/12 09:20:59;;;;;;;9.65;4.20;;;27.60;50.10;;;;;;5030014;28;20044;-74
2023/10/12 09:23:31;;;;;;;9.35;3.80;;;28.00;49.40;;;;;;5031222;28;20100;-74
2023/10/12 09:26:15;;;;;;;9.43;3.28;;;28.40;48.80;;;;;;5029675;28;20045;-74
2023/10/12 09:36:29;;;;;;;14.35;4.57;;;29.30;45.50;;;;;;5030806;28;20490;-74
2023/10/12 09:39:00;;;;;;;8.07;3.60;;;28.80;45.00;;;;;;5030843;28;20056;-73
2023/10/12 09:41:32;;;;;;;7.18;3.70;;;28.90;45.60;;;;;;5030866;28;20029;-75
2023/10/12 09:44:04;;;;;;;6.15;3.65;;;28.70;45.20;;;;;;5030842;28;20037;-74
2023/10/12 09:46:32;;;;;;;11.20;4.53;;;27.40;46.80;;;;;;5029720;28;20459;-74
2023/10/12 09:49:08;;;;;;;5.50;3.53;;;26.40;49.40;;;;;;5030597;28;20032;-74
2023/10/12 09:51:37;;;;;;;14.98;4.10;;;25.70;51.50;;;;;;5030804;28;20040;-74
2023/10/12 09:54:15;;;;;;;8.18;4.53;;;24.90;53.50;;;;;;5030554;28;20048;-74
2023/10/12 09:56:46;;;;;;;9.45;4.32;;;24.30;54.50;;;;;;5030556;28;20037;-73
2023/10/12 09:59:14;;;;;;;9.15;4.65;;;23.90;55.80;;;;;;5030315;28;20025;-73
2023/10/12 10:07:15;;;;;;;14.52;4.85;;;22.90;57.70;;;;;;5030705;28;20507;-74
2023/10/12 10:09:49;;;;;;;8.30;4.35;;;22.70;59.00;;;;;;5028299;28;20070;-74
2023/10/12 10:12:16;;;;;;;9.77;4.30;;;22.40;60.40;;;;;;5028844;28;20035;-73
2023/10/12 10:14:45;;;;;;;10.80;4.57;;;22.30;61.40;;;;;;5028817;28;20017;-74
2023/10/12 10:17:14;;;;;;;9.10;4.70;;;22.20;61.90;;;;;;5029850;28;20057;-74
2023/10/12 10:19:43;;;;;;;11.77;4.75;;;22.10;62.30;;;;;;5028684;28;20029;-74
2023/10/12 10:22:14;;;;;;;11.50;6.00;;;22.00;61.80;;;;;;5030078;28;20029;-74
2023/10/12 10:24:58;;;;;;;10.75;5.00;;;21.90;62.70;;;;;;5028697;28;20498;-74
2023/10/12 10:27:34;;;;;;;13.80;4.88;;;21.90;63.60;;;;;;5029976;28;20037;-73
2023/10/12 10:30:36;;;;;;;10.95;4.20;;;21.80;63.40;;;;;;5028745;28;20050;-74
2023/10/12 10:33:12;;;;;;;8.90;4.47;;;21.80;64.00;;;;;;5029925;28;20541;-73
2023/10/12 10:36:17;;;;;;;15.63;4.70;;;21.80;64.60;;;;;;5028659;28;20349;-74
2023/10/12 10:38:53;;;;;;;8.75;4.47;;;21.80;64.70;;;;;;5028485;28;20068;-74
2023/10/12 10:41:46;;;;;;;19.77;4.97;;;21.70;64.90;;;;;;5029701;28;20021;-73
2023/10/12 10:44:16;;;;;;;14.45;4.95;;;21.70;65.80;;;;;;5029647;28;20505;-74
2023/10/12 10:46:46;;;;;;;10.43;4.43;;;21.70;65.40;;;;;;5029513;28;20569;-74
2023/10/12 10:49:16;;;;;;;14.07;4.40;;;21.70;64.90;;;;;;5029737;28;20032;-74
2023/10/12 10:51:55;;;;;;;9.57;4.85;;;21.70;65.20;;;;;;5029377;28;20037;-74
2023/10/12 10:54:21;;;;;;;10.85;3.92;;;21.70;65.40;;;;;;5029487;28;20108;-73
2023/10/12 10:56:47;;;;;;;11.18;4.72;;;21.70;64.90;;;;;;5029363;28;20112;-73
2023/10/12 10:59:17;;;;;;;5.85;3.33;;;21.70;65.60;;;;;;5029380;28;20104;-74
2023/10/12 11:01:50;;;;;;;11.75;3.97;;;21.60;65.50;;;;;;5029326;28;20379;-74
2023/10/12 11:07:03;;;;;;;9.27;3.75;;;21.50;65.50;;;;;;5029467;28;20124;-74
2023/10/12 11:09:49;;;;;;;9.73;3.50;;;21.50;65.70;;;;;;5029042;28;20027;-73
2023/10/12 11:12:15;;;;;;;9.27;3.75;;;21.40;66.30;;;;;;5027830;28;20030;-73
2023/10/12 11:14:52;;;;;;;8.40;4.15;;;21.40;66.50;;;;;;5029180;28;20128;-74
2023/10/12 11:17:20;;;;;;;8.90;3.80;;;21.40;67.40;;;;;;5028681;28;20037;-73
2023/10/12 11:19:49;;;;;;;11.70;3.90;;;21.40;67.90;;;;;;5028053;28;20036;-73
2023/10/12 11:22:15;;;;;;;12.90;4.07;;;21.40;68.10;;;;;;5029256;28;20061;-74
2023/10/12 11:24:45;;;;;;;9.93;3.78;;;21.40;67.90;;;;;;5029249;28;20601;-74
2023/10/12 11:27:11;;;;;;;8.45;4.05;;;21.40;68.20;;;;;;5029065;28;20033;-74
2023/10/12 11:29:50;;;;;;;17.17;3.88;;;21.40;68.20;;;;;;5027840;28;20029;-74
2023/10/12 11:32:16;;;;;;;7.82;3.67;;;21.40;68.30;;;;;;5028940;28;20036;-73
2023/10/12 11:34:47;;;;;;;10.35;3.72;;;21.40;69.20;;;;;;5027568;28;20401;-74
2023/10/12 11:37:13;;;;;;;18.75;4.32;;;21.40;69.80;;;;;;5029069;28;20585;-74
2023/10/12 11:39:46;;;;;;;8.63;3.88;;;21.40;70.70;;;;;;5028879;28;20026;-74
2023/10/12 11:42:13;;;;;;;9.65;4.32;;;21.40;70.00;;;;;;5027601;28;20037;-74
2023/10/12 11:44:43;;;;;;;7.13;3.15;;;21.40;70.10;;;;;;5028896;28;20107;-73
2023/10/12 11:47:38;;;;;;;14.10;4.03;;;21.50;70.10;;;;;;5029102;28;20040;-74
2023/10/12 11:50:09;;;;;;;10.23;4.35;;;21.50;69.80;;;;;;5027195;28;20040;-73
2023/10/12 11:52:37;;;;;;;7.85;3.85;;;21.50;69.50;;;;;;5028771;28;20026;-74
2023/10/12 11:55:07;;;;;;;15.00;5.20;;;21.50;69.60;;;;;;5028716;28;20033;-74
2023/10/12 11:57:43;;;;;;;10.02;3.55;;;21.50;69.70;;;;;;5028701;28;20042;-74
2023/10/12 12:00:26;;;;;;;15.23;4.35;;;21.50;69.80;;;;;;5028711;28;20507;-74
2023/10/12 12:02:57;;;;;;;11.57;3.95;;;21.50;69.70;;;;;;5028638;28;20574;-74
2023/10/12 12:05:25;;;;;;;9.75;3.42;;;21.50;69.60;;;;;;5027671;28;20091;-74
2023/10/12 12:07:51;;;;;;;10.40;4.82;;;21.40;69.40;;;;;;5027345;28;20056;-74
2023/10/12 12:11:08;;;;;;;8.07;3.85;;;21.50;69.90;;;;;;5027435;28;20022;-74
2023/10/12 12:13:09;;;;;;;10.90;4.00;;;21.60;69.80;;;;;;5027822;28;20038;-74
2023/10/12 12:15:43;;;;;;;11.00;3.97;;;21.60;69.20;;;;;;5027154;28;20030;-73
2023/10/12 12:20:43;;;;;;;7.25;3.45;;;21.60;69.00;;;;;;5028805;28;20056;-74
2023/10/12 12:23:13;;;;;;;7.95;3.70;;;21.70;69.90;;;;;;5028311;28;20051;-74
2023/10/12 12:25:42;;;;;;;13.38;4.22;;;21.70;70.20;;;;;;5028372;28;20557;-74
2023/10/12 12:28:13;;;;;;;11.73;4.78;;;21.70;70.40;;;;;;5028369;28;20040;-74
2023/10/12 12:30:46;;;;;;;11.63;4.20;;;21.80;69.80;;;;;;5027208;28;20064;-74
2023/10/12 12:33:15;;;;;;;9.52;3.65;;;21.80;70.20;;;;;;5030809;28;20021;-74
2023/10/12 12:35:44;;;;;;;9.52;3.97;;;21.80;70.50;;;;;;5031079;28;20033;-74
2023/10/12 12:40:56;;;;;;;11.57;4.00;;;22.00;70.10;;;;;;5032425;28;20120;-74
2023/10/12 12:43:22;;;;;;;13.20;4.82;;;22.10;70.20;;;;;;5032181;28;20032;-74
2023/10/12 12:45:48;;;;;;;14.55;3.67;;;22.20;70.40;;;;;;5030752;28;20045;-73
2023/10/12 12:48:14;;;;;;;13.95;4.28;;;22.20;70.00;;;;;;5031050;28;20129;-72
2023/10/12 12:50:41;;;;;;;14.98;4.00;;;22.30;70.20;;;;;;5031039;28;20478;-74
2023/10/12 12:53:11;;;;;;;9.50;4.32;;;22.30;70.00;;;;;;5032117;28;20076;-73
2023/10/12 12:55:38;;;;;;;16.98;4.38;;;22.40;69.20;;;;;;5030589;28;20064;-73
2023/10/12 12:58:05;;;;;;;22.13;4.63;;;22.40;69.10;;;;;;5031961;28;20086;-74
2023/10/12 13:00:33;;;;;;;14.82;3.90;;;22.50;69.70;;;;;;5032539;28;20025;-74
2023/10/12 13:03:00;;;;;;;15.82;3.97;;;22.50;69.50;;;;;;5030481;28;20037;-74
2023/10/12 13:05:28;;;;;;;16.77;4.57;;;22.50;70.10;;;;;;5031693;28;20044;-74
2023/10/12 13:07:54;;;;;;;11.27;4.25;;;22.50;70.60;;;;;;5031573;28;20034;-74
2023/10/12 13:10:22;;;;;;;13.10;4.32;;;22.50;70.70;;;;;;5030274;28;20021;-74
2023/10/12 13:12:48;;;;;;;17.30;4.53;;;22.50;70.40;;;;;;5030351;28;20037;-74
2023/10/12 13:15:14;;;;;;;10.95;5.22;;;22.60;70.50;;;;;;5031463;28;20033;-74
2023/10/12 13:17:40;;;;;;;17.15;4.20;;;22.60;70.70;;;;;;5030027;28;20077;-74
2023/10/12 13:20:18;;;;;;;10.10;3.95;;;22.50;70.70;;;;;;5030185;28;20037;-74
2023/10/12 13:22:44;;;;;;;18.20;4.30;;;22.50;71.20;;;;;;5031524;28;20449;-74
2023/10/12 13:25:11;;;;;;;11.15;3.95;;;22.50;72.00;;;;;;5031760;28;20025;-74
2023/10/12 13:27:37;;;;;;;15.32;2.97;;;22.50;72.40;;;;;;5030005;28;20494;-74
2023/10/12 13:30:11;;;;;;;10.60;4.07;;;22.50;72.70;;;;;;5031125;28;20441;-72
2023/10/12 13:32:37;;;;;;;11.30;4.07;;;22.50;72.70;;;;;;5031206;28;20087;-74
2023/10/12 13:37:51;;;;;;;;;;;22.50;72.20;;;;;;5031480;28;20059;-73
2023/10/12 13:40:17;;;;;;;13.77;3.85;;;22.50;72.30;;;;;;5031549;28;19917;-74
2023/10/12 13:42:45;;;;;;;19.52;4.95;;;22.50;72.30;;;;;;5037635;28;20036;-74
2023/10/12 13:45:18;;;;;;;21.27;3.67;;;22.50;71.90;;;;;;5028113;28;20144;-74
2023/10/12 13:47:46;;;;;;;10.18;3.85;;;22.40;72.10;;;;;;5029656;28;20040;-74
2023/10/12 13:50:13;;;;;;;17.10;5.82;;;22.40;72.60;;;;;;5030992;28;20017;-73
2023/10/12 13:52:40;;;;;;;16.05;4.00;;;22.40;73.30;;;;;;5029561;28;20030;-73
2023/10/12 13:55:13;;;;;;;11.63;3.38;;;22.30;73.30;;;;;;5029428;28;20025;-74
2023/10/12 13:57:55;;;;;;;16.58;4.20;;;22.30;73.40;;;;;;5029490;28;20037;-74
2023/10/12 14:00:27;;;;;;;19.90;4.38;;;22.30;74.30;;;;;;5030669;28;20030;-73
2023/10/12 14:02:57;;;;;;;11.68;3.50;;;22.40;74.10;;;;;;5029327;28;20529;-73
2023/10/12 14:05:29;;;;;;;16.77;4.22;;;22.30;74.40;;;;;;5029241;28;20037;-74
2023/10/12 14:07:58;;;;;;;13.93;4.55;;;22.30;74.30;;;;;;5030736;28;20029;-73
2023/10/12 14:10:26;;;;;;;11.32;4.07;;;22.30;74.20;;;;;;5028954;28;20490;-74
2023/10/12 14:12:55;;;;;;;10.60;3.53;;;22.30;74.10;;;;;;5029295;28;20107;-74
2023/10/12 14:15:27;;;;;;;7.70;4.03;;;22.30;74.40;;;;;;5030434;28;20025;-73
2023/10/12 14:17:54;;;;;;;12.30;4.43;;;22.30;74.40;;;;;;5030126;28;20049;-73
2023/10/12 14:20:26;;;;;;;10.02;3.53;;;22.20;74.20;;;;;;5033120;28;20025;-74
2023/10/12 14:23:05;;;;;;;12.88;4.05;;;22.20;74.40;;;;;;5030695;28;20108;-74
2023/10/12 14:25:38;;;;;;;10.00;4.25;;;22.10;74.60;;;;;;5030179;28;20116;-74
2023/10/12 14:28:07;;;;;;;15.13;4.40;;;22.10;74.30;;;;;;5030197;28;20768;-73
2023/10/12 14:30:33;;;;;;;9.75;4.00;;;22.10;74.70;;;;;;5028914;28;20017;-74
2023/10/12 14:33:02;;;;;;;15.43;4.07;;;22.10;74.90;;;;;;5028119;28;20036;-74
2023/10/12 14:35:35;;;;;;;7.97;3.70;;;22.10;75.10;;;;;;5028473;28;20055;-74
2023/10/12 14:38:02;;;;;;;9.95;4.07;;;22.10;74.70;;;;;;5028287;28;20041;-73
2023/10/12 14:40:32;;;;;;;19.55;4.47;;;22.20;73.50;;;;;;5029499;28;20049;-74
2023/10/12 14:43:05;;;;;;;10.40;3.65;;;22.20;74.10;;;;;;5028192;28;20041;-74
2023/10/12 14:46:03;;;;;;;17.92;3.97;;;22.10;75.40;;;;;;5027128;28;20706;-74
2023/10/12 14:48:28;;;;;;;14.38;3.83;;;22.10;75.10;;;;;;5027713;28;20037;-74
2023/10/12 14:51:12;;;;;;;9.52;3.33;;;22.10;75.50;;;;;;5027232;28;20740;-74
2023/10/12 14:53:39;;;;;;;21.90;4.93;;;22.00;75.90;;;;;;5027262;28;20083;-74
2023/10/12 14:56:06;;;;;;;14.23;3.60;;;21.90;75.70;;;;;;5028563;28;20486;-74
2023/10/12 14:58:33;;;;;;;9.20;3.17;;;21.90;76.10;;;;;;5029666;28;20033;-74
2023/10/12 15:00:59;;;;;;;12.70;3.83;;;21.80;76.70;;;;;;5029920;28;20029;-74
2023/10/12 15:03:26;;;;;;;11.63;3.88;;;21.70;77.30;;;;;;5028331;28;20072;-74
2023/10/12 15:05:53;;;;;;;11.50;3.90;;;21.60;78.10;;;;;;5028051;28;20056;-73
2023/10/12 15:08:20;;;;;;;9.70;3.95;;;21.60;78.90;;;;;;5028200;28;20068;-74
2023/10/12 15:10:46;;;;;;;9.55;3.65;;;21.50;79.50;;;;;;5029416;28;20034;-74
2023/10/12 15:13:14;;;;;;;10.43;3.83;;;21.40;79.90;;;;;;5028254;28;20036;-76
2023/10/12 15:15:47;;;;;;;11.05;4.15;;;21.40;80.50;;;;;;5028061;28;20032;-74
2023/10/12 15:18:13;;;;;;;11.77;3.92;;;21.30;81.60;;;;;;5027898;28;20449;-74
2023/10/12 15:20:40;;;;;;;8.68;4.20;;;21.20;82.40;;;;;;5028049;28;20026;-75
2023/10/12 15:23:07;;;;;;;16.30;4.30;;;21.20;82.90;;;;;;5028185;28;20040;-74
2023/10/12 15:25:34;;;;;;;10.38;4.40;;;21.10;83.20;;;;;;5027954;28;20120;-74
2023/10/12 15:28:00;;;;;;;11.95;4.75;;;21.10;83.90;;;;;;5027948;28;20025;-74
2023/10/12 15:30:26;;;;;;;11.95;5.75;;;21.10;84.40;;;;;;5029104;28;20414;-74